Annapolis, Missouri
Current Conditions -  °F | °C
As of 7:15 AM on Monday 22 Dec 2014 (Local Time) from KFAM Reporting Station
Overcast Overcast  
Wind Chill: 36°   Ceiling: 800
Heat Index: 43°   Visibility: 8mi
Dew Point: 39°   Wind: 14mph
Humidity: 87%   Direction: 150°SSE
Pressure: 29.77"   Gusts: NA
Location:  37.36°N, 90.7°W
Report Text: KFAM 221315Z AUTO 15012KT 8SM OVC008 06/04 A2977 RMK AO1
Loading
Personal Weather Stations






























Interactive Weather Map New forecast layout! Learn more

10-Day Weather Forecast

Advertisements
Track Severe Weather on mobile